Time;durP1;ratioP1;P1;durP2;ratioP2;P2;SDS_P1;SDS_P2;PMS_P1;PMS_P2;Temp;Humidity;BMP_temperature;BMP_pressure;BME280_temperature;BME280_humidity;BME280_pressure;Samples;Min_cycle;Max_cycle;Signal;HPM_P1;HPM_P2
2023/08/10 00:02:38;;;;;;;;;;;;;;;14.02;73.23;98377.78;5119247;27;20006;-60
2023/08/10 00:05:26;;;;;;;;;;;;;;;14.07;73.06;98375.69;5119413;27;19931;-58
2023/08/10 00:08:14;;;;;;;;;;;;;;;14.15;73.03;98372.16;5107465;27;19923;-58
2023/08/10 00:11:03;;;;;;;;;;;;;;;14.04;73.41;98370.88;5134937;27;19924;-58
2023/08/10 00:13:51;;;;;;;;;;;;;;;14.08;73.20;98377.31;5123256;27;19935;-59
2023/08/10 00:16:41;;;;;;;;;;;;;;;14.05;73.63;98372.47;5121919;27;19927;-59
2023/08/10 00:19:30;;;;;;;;;;;;;;;14.17;73.02;98385.50;5125910;27;19924;-59
2023/08/10 00:22:18;;;;;;;;;;;;;;;14.16;73.18;98378.41;5101249;28;19927;-61
2023/08/10 00:25:07;;;;;;;;;;;;;;;13.91;73.68;98382.78;5099678;28;20014;-61
2023/08/10 00:27:55;;;;;;;;;;;;;;;13.85;73.69;98378.59;5098939;27;19928;-58
2023/08/10 00:30:47;;;;;;;;;;;;;;;13.82;73.68;98376.50;5126124;27;19923;-59
2023/08/10 00:33:38;;;;;;;;;;;;;;;13.89;73.50;98380.34;5099817;28;20554;-59
2023/08/10 00:36:26;;;;;;;;;;;;;;;13.92;73.11;98386.31;5121592;27;19935;-59
2023/08/10 00:39:14;;;;;;;;;;;;;;;13.87;73.33;98382.59;5094963;28;19924;-59
2023/08/10 00:42:03;;;;;;;;;;;;;;;13.83;73.10;98389.84;5098741;28;19932;-59
2023/08/10 00:44:52;;;;;;;;;;;;;;;13.68;73.52;98384.03;5102585;28;19955;-58
2023/08/10 00:47:40;;;;;;;;;;;;;;;13.77;73.39;98390.31;5126788;27;19931;-58
2023/08/10 00:50:29;;;;;;;;;;;;;;;13.82;73.30;98384.69;5095019;28;19935;-60
2023/08/10 00:53:18;;;;;;;;;;;;;;;13.79;73.63;98388.84;5098566;28;19924;-59
2023/08/10 00:56:06;;;;;;;;;;;;;;;13.82;73.20;98390.16;5095645;28;19928;-59
2023/08/10 00:58:54;;;;;;;;;;;;;;;13.70;73.51;98390.81;5100486;28;19924;-60
2023/08/10 01:01:42;;;;;;;;;;;;;;;13.78;72.99;98400.91;5102216;27;20344;-60
2023/08/10 01:04:30;;;;;;;;;;;;;;;13.75;73.19;98404.31;5089892;28;19964;-60
2023/08/10 01:07:21;;;;;;;;;;;;;;;13.78;72.58;98402.84;5097870;28;19924;-59
2023/08/10 01:10:11;;;;;;;;;;;;;;;13.75;72.45;98403.50;5128646;27;20022;-59
2023/08/10 01:13:00;;;;;;;;;;;;;;;13.70;72.33;98404.44;5099479;28;20419;-58
2023/08/10 01:15:49;;;;;;;;;;;;;;;13.54;72.69;98401.38;5101631;27;20566;-58
2023/08/10 01:18:40;;;;;;;;;;;;;;;13.41;72.99;98390.59;5101269;28;20309;-59
2023/08/10 01:21:30;;;;;;;;;;;;;;;13.35;72.84;98381.75;5118112;27;19930;-59
2023/08/10 01:24:24;;;;;;;;;;;;;;;13.46;73.04;98402.16;5116086;27;20024;-59
2023/08/10 01:27:14;;;;;;;;;;;;;;;13.52;72.42;98398.16;5120146;27;19927;-61
2023/08/10 01:30:04;;;;;;;;;;;;;;;13.56;71.90;98399.13;5133422;27;20342;-58
2023/08/10 01:32:52;;;;;;;;;;;;;;;13.44;72.26;98401.69;5123130;27;19934;-59
2023/08/10 01:35:40;;;;;;;;;;;;;;;13.42;72.02;98403.09;5106679;27;19950;-59
2023/08/10 01:38:29;;;;;;;;;;;;;;;13.24;72.12;98402.25;5120901;27;19923;-59
2023/08/10 01:41:17;;;;;;;;;;;;;;;13.32;72.35;98402.28;5135416;27;20002;-60
2023/08/10 01:44:07;;;;;;;;;;;;;;;13.37;72.39;98406.81;5106125;27;19945;-58
2023/08/10 01:46:56;;;;;;;;;;;;;;;13.02;73.00;98412.09;5105437;27;19923;-58
2023/08/10 01:49:44;;;;;;;;;;;;;;;13.27;72.54;98407.91;5099519;27;19924;-60
2023/08/10 01:52:36;;;;;;;;;;;;;;;13.22;72.75;98415.44;5121636;27;19924;-59
2023/08/10 01:55:25;;;;;;;;;;;;;;;13.10;73.24;98425.00;5106453;27;19942;-59
2023/08/10 01:58:13;;;;;;;;;;;;;;;13.03;73.25;98419.16;5105692;27;19932;-58
2023/08/10 02:01:02;;;;;;;;;;;;;;;13.14;73.19;98418.88;5130188;27;20459;-60
2023/08/10 02:03:51;;;;;;;;;;;;;;;13.16;73.15;98422.91;5120571;27;20300;-58
2023/08/10 02:06:40;;;;;;;;;;;;;;;13.04;72.78;98426.22;5130397;27;19976;-59
2023/08/10 02:09:29;;;;;;;;;;;;;;;12.87;73.05;98425.34;5105026;27;20391;-58
2023/08/10 02:12:18;;;;;;;;;;;;;;;12.88;73.02;98425.03;5101875;27;20023;-58
2023/08/10 02:15:07;;;;;;;;;;;;;;;12.88;72.95;98421.50;5131520;27;20018;-59
2023/08/10 02:17:57;;;;;;;;;;;;;;;12.97;72.64;98423.16;5123049;27;20044;-59
2023/08/10 02:20:45;;;;;;;;;;;;;;;12.99;72.32;98418.19;5129335;27;19932;-58
2023/08/10 02:23:35;;;;;;;;;;;;;;;13.03;71.53;98413.72;5096410;28;20372;-59
2023/08/10 02:26:23;;;;;;;;;;;;;;;13.02;71.02;98416.75;5107814;27;20273;-58
2023/08/10 02:29:12;;;;;;;;;;;;;;;12.97;71.20;98425.06;5090627;28;19936;-59
2023/08/10 02:32:03;;;;;;;;;;;;;;;12.95;71.03;98411.75;5107639;27;20032;-61
2023/08/10 02:34:53;;;;;;;;;;;;;;;12.93;70.93;98413.97;5119319;27;20057;-58
2023/08/10 02:37:41;;;;;;;;;;;;;;;12.93;70.80;98419.44;5098390;28;19935;-59
2023/08/10 02:40:31;;;;;;;;;;;;;;;12.89;70.77;98417.66;5099559;28;20019;-59
2023/08/10 02:43:19;;;;;;;;;;;;;;;12.43;72.22;98411.47;5090619;28;19924;-61
2023/08/10 02:46:08;;;;;;;;;;;;;;;12.63;71.77;98415.63;5109996;27;20417;-58
2023/08/10 02:48:56;;;;;;;;;;;;;;;12.67;71.15;98418.50;5097418;28;19931;-58
2023/08/10 02:51:46;;;;;;;;;;;;;;;12.63;70.95;98418.34;5090578;28;19932;-60
2023/08/10 02:54:34;;;;;;;;;;;;;;;12.70;71.14;98415.16;5097892;28;20572;-60
2023/08/10 02:57:22;;;;;;;;;;;;;;;12.70;70.82;98420.63;5099007;28;20304;-59
2023/08/10 03:00:12;;;;;;;;;;;;;;;12.61;70.88;98422.47;5098916;28;19924;-59
2023/08/10 03:03:00;;;;;;;;;;;;;;;12.70;70.66;98420.63;5097492;28;19935;-57
2023/08/10 03:05:48;;;;;;;;;;;;;;;12.65;70.51;98412.56;5099475;28;19924;-58
2023/08/10 03:08:38;;;;;;;;;;;;;;;12.52;70.60;98415.06;5096982;28;20032;-61
2023/08/10 03:11:29;;;;;;;;;;;;;;;12.52;70.34;98419.72;5094002;28;19924;-58
2023/08/10 03:14:18;;;;;;;;;;;;;;;12.54;70.28;98423.72;5099058;28;20369;-59
2023/08/10 03:17:06;;;;;;;;;;;;;;;12.35;71.02;98416.88;5099579;28;19985;-60
2023/08/10 03:19:55;;;;;;;;;;;;;;;12.36;71.09;98422.03;5107960;28;19938;-60
2023/08/10 03:22:43;;;;;;;;;;;;;;;12.31;71.25;98428.41;5102637;27;19927;-58
2023/08/10 03:25:33;;;;;;;;;;;;;;;12.29;71.15;98427.88;5131924;27;20414;-58
2023/08/10 03:28:22;;;;;;;;;;;;;;;12.11;71.70;98430.81;5120187;27;19959;-58
2023/08/10 03:31:13;;;;;;;;;;;;;;;12.18;71.93;98433.91;5107761;27;19938;-58
2023/08/10 03:34:04;;;;;;;;;;;;;;;12.23;72.10;98439.22;5106155;27;19923;-59
2023/08/10 03:36:54;;;;;;;;;;;;;;;12.25;72.19;98434.25;5132336;27;19970;-58
2023/08/10 03:39:43;;;;;;;;;;;;;;;12.29;72.13;98437.97;5103187;27;20008;-60
2023/08/10 03:42:32;;;;;;;;;;;;;;;12.31;72.00;98431.13;5134234;27;20026;-58
2023/08/10 03:45:21;;;;;;;;;;;;;;;12.12;72.62;98435.13;5105413;27;20450;-59
2023/08/10 03:48:09;;;;;;;;;;;;;;;12.18;72.62;98433.91;5134664;27;19924;-59
2023/08/10 03:50:57;;;;;;;;;;;;;;;12.18;72.92;98439.34;5102286;27;19967;-58
2023/08/10 03:53:46;;;;;;;;;;;;;;;12.13;72.75;98439.47;5108442;27;19992;-58
2023/08/10 03:56:34;;;;;;;;;;;;;;;12.12;72.67;98440.56;5102890;27;19924;-59
2023/08/10 03:59:24;;;;;;;;;;;;;;;12.15;72.36;98438.06;5126407;27;19928;-58
2023/08/10 04:02:12;;;;;;;;;;;;;;;12.13;72.52;98436.72;5126623;27;20365;-61
2023/08/10 04:05:05;;;;;;;;;;;;;;;12.19;72.35;98432.78;5103414;27;20280;-58
2023/08/10 04:07:53;;;;;;;;;;;;;;;11.98;72.53;98432.44;5105448;27;19923;-60
2023/08/10 04:10:42;;;;;;;;;;;;;;;11.97;72.96;98439.81;5132542;27;20329;-60
2023/08/10 04:13:30;;;;;;;;;;;;;;;11.96;72.94;98440.94;5120499;27;20009;-59
2023/08/10 04:16:19;;;;;;;;;;;;;;;11.91;73.16;98443.75;5120420;27;20023;-58
2023/08/10 04:19:08;;;;;;;;;;;;;;;11.93;73.26;98446.16;5118160;27;19983;-61
2023/08/10 04:21:57;;;;;;;;;;;;;;;12.00;72.92;98458.28;5117586;27;19923;-58
2023/08/10 04:24:45;;;;;;;;;;;;;;;11.95;72.42;98458.38;5120547;27;20384;-59
2023/08/10 04:27:33;;;;;;;;;;;;;;;11.92;72.57;98472.59;5120284;27;19931;-59
2023/08/10 04:30:28;;;;;;;;;;;;;;;12.05;71.77;98466.31;5118254;27;19958;-59
2023/08/10 04:33:18;;;;;;;;;;;;;;;12.05;71.77;98474.50;5115474;27;20534;-58
2023/08/10 04:36:07;;;;;;;;;;;;;;;12.07;71.75;98469.53;5119374;27;19934;-58
2023/08/10 04:38:55;;;;;;;;;;;;;;;12.01;71.91;98478.94;5119927;27;20983;-59
2023/08/10 04:41:43;;;;;;;;;;;;;;;11.84;72.26;98478.78;5121243;27;19951;-58
2023/08/10 04:44:31;;;;;;;;;;;;;;;11.96;72.29;98473.59;5118123;27;19923;-60
2023/08/10 04:47:19;;;;;;;;;;;;;;;12.04;72.10;98477.53;5121898;27;19923;-58
2023/08/10 04:50:10;;;;;;;;;;;;;;;12.09;71.78;98485.59;5119793;27;19972;-60
2023/08/10 04:52:58;;;;;;;;;;;;;;;12.04;72.22;98486.50;5118137;27;19931;-60
2023/08/10 04:55:46;;;;;;;;;;;;;;;12.11;72.00;98488.81;5134156;27;19924;-59
2023/08/10 04:58:34;;;;;;;;;;;;;;;12.08;71.92;98481.22;5128332;27;20546;-59
2023/08/10 05:01:23;;;;;;;;;;;;;;;11.99;72.68;98489.34;5118476;27;19927;-61
2023/08/10 05:04:14;;;;;;;;;;;;;;;12.16;72.20;98494.13;5114084;27;20017;-59
2023/08/10 05:07:04;;;;;;;;;;;;;;;12.25;72.12;98496.91;5125003;27;19935;-59
2023/08/10 05:09:52;;;;;;;;;;;;;;;12.26;71.90;98491.19;5127420;27;20193;-60
2023/08/10 05:12:43;;;;;;;;;;;;;;;12.03;72.79;98493.03;5121893;27;19927;-58
2023/08/10 05:15:34;;;;;;;;;;;;;;;11.93;72.86;98490.56;5123787;27;19924;-58
2023/08/10 05:18:23;;;;;;;;;;;;;;;11.88;73.04;98485.22;5114885;27;19924;-58
2023/08/10 05:21:11;;;;;;;;;;;;;;;11.91;73.45;98491.97;5119918;27;19930;-58
2023/08/10 05:24:01;;;;;;;;;;;;;;;11.91;73.96;98500.94;5119823;27;20004;-60
2023/08/10 05:26:49;;;;;;;;;;;;;;;11.84;73.59;98497.03;5117679;27;19927;-60
2023/08/10 05:29:37;;;;;;;;;;;;;;;11.84;73.89;98497.03;5121455;27;20399;-59
2023/08/10 05:32:25;;;;;;;;;;;;;;;11.86;73.79;98495.59;5119321;27;19927;-59
2023/08/10 05:35:16;;;;;;;;;;;;;;;11.96;73.34;98498.09;5118166;27;20401;-60
2023/08/10 05:38:04;;;;;;;;;;;;;;;12.04;73.36;98502.03;5117562;27;19931;-59
2023/08/10 05:40:55;;;;;;;;;;;;;;;12.00;73.41;98512.72;5101222;27;19923;-60
2023/08/10 05:43:43;;;;;;;;;;;;;;;12.00;74.02;98507.28;5119225;27;19987;-60
2023/08/10 05:46:31;;;;;;;;;;;;;;;12.10;73.69;98506.25;5111093;27;20013;-59
2023/08/10 05:49:19;;;;;;;;;;;;;;;12.27;73.49;98513.78;5103246;27;20528;-58
2023/08/10 05:52:09;;;;;;;;;;;;;;;12.26;73.22;98510.25;5118066;27;20018;-59
2023/08/10 05:54:58;;;;;;;;;;;;;;;12.30;73.31;98524.03;5127975;27;20045;-58
2023/08/10 05:57:47;;;;;;;;;;;;;;;12.41;73.10;98521.88;5115450;27;19969;-59
2023/08/10 06:00:36;;;;;;;;;;;;;;;12.40;73.66;98521.09;5119472;27;20432;-60
2023/08/10 06:03:24;;;;;;;;;;;;;;;12.53;73.83;98525.69;5114662;27;20359;-61
2023/08/10 06:06:13;;;;;;;;;;;;;;;12.63;73.58;98518.41;5123795;27;20416;-60
2023/08/10 06:09:04;;;;;;;;;;;;;;;12.70;73.69;98519.56;5120480;27;20217;-58
2023/08/10 06:11:52;;;;;;;;;;;;;;;12.78;73.21;98523.44;5106448;27;19923;-58
2023/08/10 06:14:44;;;;;;;;;;;;;;;12.82;73.06;98522.53;5123231;27;20036;-60
2023/08/10 06:17:33;;;;;;;;;;;;;;;12.92;72.86;98520.66;5119087;27;19923;-59
2023/08/10 06:20:22;;;;;;;;;;;;;;;12.86;72.74;98517.25;5098438;28;20436;-59
2023/08/10 06:23:10;;;;;;;;;;;;;;;12.95;72.70;98531.75;5095455;28;19928;-58
2023/08/10 06:26:00;;;;;;;;;;;;;;;12.92;72.71;98526.91;5099684;28;20022;-61
2023/08/10 06:28:48;;;;;;;;;;;;;;;13.03;72.81;98530.19;5098405;28;20338;-59
2023/08/10 06:31:38;;;;;;;;;;;;;;;13.18;72.33;98534.47;5103175;28;19924;-60
2023/08/10 06:34:26;;;;;;;;;;;;;;;13.18;72.64;98537.19;5102575;28;19924;-60
2023/08/10 06:37:16;;;;;;;;;;;;;;;13.21;72.88;98542.00;5091926;28;19931;-58
2023/08/10 06:40:08;;;;;;;;;;;;;;;13.32;72.40;98543.41;5098973;28;19935;-59
2023/08/10 06:42:56;;;;;;;;;;;;;;;13.47;72.04;98542.16;5101928;28;20480;-60
2023/08/10 06:45:55;;;;;;;;;;;;;;;13.50;72.17;98547.81;5115676;27;19991;-59
2023/08/10 06:48:45;;;;;;;;;;;;;;;13.52;72.35;98545.56;5097926;28;19927;-59
2023/08/10 06:51:33;;;;;;;;;;;;;;;13.63;72.16;98546.91;5109997;27;20076;-60
2023/08/10 06:54:23;;;;;;;;;;;;;;;13.69;71.80;98552.19;5102264;28;19931;-58
2023/08/10 06:57:12;;;;;;;;;;;;;;;13.63;71.90;98552.38;5097852;27;19931;-60
2023/08/10 07:00:00;;;;;;;;;;;;;;;13.73;72.27;98561.38;5107181;28;20397;-59
2023/08/10 07:03:08;;;;;;;;;;;;;;;13.75;71.48;98561.88;5100052;28;19927;-60
2023/08/10 07:05:58;;;;;;;;;;;;;;;13.79;71.78;98563.63;5105741;28;19928;-59
2023/08/10 07:08:47;;;;;;;;;;;;;;;13.92;71.85;98567.38;5126324;27;19927;-61
2023/08/10 07:11:37;;;;;;;;;;;;;;;13.94;71.86;98575.25;5100644;27;19924;-58
2023/08/10 07:14:25;;;;;;;;;;;;;;;13.95;72.39;98585.06;5106155;28;19924;-58
2023/08/10 07:17:13;;;;;;;;;;;;;;;14.05;72.23;98580.09;5098558;28;20602;-58
2023/08/10 07:20:05;;;;;;;;;;;;;;;14.25;71.60;98575.19;5101416;28;19938;-58
2023/08/10 07:22:55;;;;;;;;;;;;;;;14.33;71.80;98567.00;5105178;28;19935;-58
2023/08/10 07:25:44;;;;;;;;;;;;;;;14.51;70.72;98567.03;5106300;27;19971;-59
2023/08/10 07:28:32;;;;;;;;;;;;;;;14.55;69.80;98570.75;5095738;28;19924;-58
2023/08/10 07:31:23;;;;;;;;;;;;;;;14.61;69.74;98569.47;5101766;28;20569;-58
2023/08/10 07:34:12;;;;;;;;;;;;;;;14.66;69.91;98572.03;5099250;28;19924;-60
2023/08/10 07:37:00;;;;;;;;;;;;;;;14.78;69.54;98568.66;5101262;28;19975;-59
2023/08/10 07:39:50;;;;;;;;;;;;;;;14.82;69.27;98575.91;5101347;28;19932;-58
2023/08/10 07:42:38;;;;;;;;;;;;;;;14.84;69.08;98573.63;5105240;28;19935;-59
2023/08/10 07:45:26;;;;;;;;;;;;;;;14.91;68.86;98570.41;5101106;27;20432;-59
2023/08/10 07:48:14;;;;;;;;;;;;;;;14.89;68.17;98569.94;5101410;28;19928;-59
2023/08/10 07:51:03;;;;;;;;;;;;;;;14.99;68.74;98575.06;5124144;27;19924;-59
2023/08/10 07:53:51;;;;;;;;;;;;;;;15.09;68.41;98582.16;5100261;28;19973;-58
2023/08/10 07:56:41;;;;;;;;;;;;;;;15.17;68.33;98576.63;5100571;28;19993;-58
2023/08/10 07:59:30;;;;;;;;;;;;;;;15.25;68.81;98576.97;5100512;27;19928;-60
2023/08/10 08:02:18;;;;;;;;;;;;;;;15.41;68.84;98578.84;5099036;28;19931;-59
2023/08/10 08:05:07;;;;;;;;;;;;;;;15.53;68.96;98580.91;5103323;27;20551;-59
2023/08/10 08:07:55;;;;;;;;;;;;;;;15.64;68.70;98570.41;5103300;28;19923;-58
2023/08/10 08:10:45;;;;;;;;;;;;;;;15.70;68.32;98574.56;5131161;27;20010;-59
2023/08/10 08:13:37;;;;;;;;;;;;;;;15.65;66.97;98577.50;5101550;27;19923;-59
2023/08/10 08:16:26;;;;;;;;;;;;;;;15.70;67.19;98574.56;5104710;28;19927;-60
2023/08/10 08:19:15;;;;;;;;;;;;;;;15.84;66.88;98572.44;5107404;27;19932;-58
2023/08/10 08:22:03;;;;;;;;;;;;;;;15.87;66.06;98571.78;5126746;27;19935;-60
2023/08/10 08:24:52;;;;;;;;;;;;;;;15.97;65.55;98567.84;5124059;27;20022;-58
2023/08/10 08:27:40;;;;;;;;;;;;;;;16.01;65.38;98566.06;5124040;27;19964;-59
2023/08/10 08:30:30;;;;;;;;;;;;;;;16.05;65.86;98561.53;5121295;27;20373;-58
2023/08/10 08:33:18;;;;;;;;;;;;;;;16.21;65.71;98568.03;5101338;27;19934;-59
2023/08/10 08:36:07;;;;;;;;;;;;;;;16.25;64.06;98565.44;5109772;27;20385;-60
2023/08/10 08:38:56;;;;;;;;;;;;;;;16.35;62.85;98575.19;5107790;27;20042;-59
2023/08/10 08:41:46;;;;;;;;;;;;;;;16.36;63.35;98560.38;5109297;27;19927;-58
2023/08/10 08:44:34;;;;;;;;;;;;;;;16.40;63.92;98566.78;5114813;27;20410;-60
2023/08/10 08:47:23;;;;;;;;;;;;;;;16.52;63.65;98558.63;5104994;27;19934;-60
2023/08/10 08:50:12;;;;;;;;;;;;;;;16.66;64.23;98561.09;5122291;27;19930;-59
2023/08/10 08:53:00;;;;;;;;;;;;;;;16.73;62.28;98556.72;5123233;27;19931;-59
2023/08/10 08:55:48;;;;;;;;;;;;;;;16.82;61.54;98564.06;5104318;27;19935;-59
2023/08/10 08:58:36;;;;;;;;;;;;;;;16.83;62.31;98569.22;5130607;27;19927;-59
2023/08/10 09:01:25;;;;;;;;;;;;;;;16.88;62.28;98568.19;5118882;27;20554;-60
2023/08/10 09:04:14;;;;;;;;;;;;;;;16.99;61.97;98566.63;5134254;27;19923;-58
2023/08/10 09:07:03;;;;;;;;;;;;;;;16.98;61.51;98563.09;5124687;27;19941;-59
2023/08/10 09:09:51;;;;;;;;;;;;;;;17.10;61.36;98556.88;5126538;27;19927;-58
2023/08/10 09:12:40;;;;;;;;;;;;;;;17.14;61.48;98555.03;5127901;27;20343;-59
2023/08/10 09:15:28;;;;;;;;;;;;;;;17.20;60.68;98547.38;5124269;27;19923;-57
2023/08/10 09:18:17;;;;;;;;;;;;;;;17.22;59.24;98548.66;5119503;27;19934;-58
2023/08/10 09:21:12;;;;;;;;;;;;;;;17.28;58.99;98546.50;5123448;27;19977;-58
2023/08/10 09:24:00;;;;;;;;;;;;;;;17.32;60.37;98544.69;5126649;27;19934;-59
2023/08/10 09:26:48;;;;;;;;;;;;;;;17.36;59.04;98542.03;5136263;27;19931;-58
2023/08/10 09:29:37;;;;;;;;;;;;;;;17.33;58.44;98545.47;5126543;27;19934;-59
2023/08/10 09:32:25;;;;;;;;;;;;;;;17.40;57.90;98540.22;5124250;27;19934;-60
2023/08/10 09:35:16;;;;;;;;;;;;;;;17.48;54.86;98534.63;5118074;27;20566;-59
2023/08/10 09:38:06;;;;;;;;;;;;;;;17.47;55.84;98532.19;5123178;27;19946;-58
2023/08/10 09:41:07;;;;;;;;;;;;;;;17.54;56.74;98532.47;5117557;27;19923;-60
2023/08/10 09:43:55;;;;;;;;;;;;;;;17.59;55.07;98534.97;5123991;27;19934;-59
2023/08/10 09:46:43;;;;;;;;;;;;;;;17.69;53.21;98534.53;5109582;27;19931;-59
2023/08/10 09:49:32;;;;;;;;;;;;;;;17.87;49.29;98528.84;5113036;27;19930;-59
2023/08/10 09:52:20;;;;;;;;;;;;;;;17.88;49.20;98531.22;5113577;27;19932;-58
2023/08/10 09:55:10;;;;;;;;;;;;;;;17.90;52.03;98530.91;5102381;27;19924;-58
2023/08/10 09:58:01;;;;;;;;;;;;;;;17.92;53.58;98536.84;5117197;27;20439;-58
2023/08/10 10:00:49;;;;;;;;;;;;;;;17.90;53.64;98536.41;5109295;27;19931;-58
2023/08/10 10:03:38;;;;;;;;;;;;;;;17.91;53.02;98529.75;5118549;27;20068;-59
2023/08/10 10:06:27;;;;;;;;;;;;;;;17.98;49.82;98535.47;5119333;27;19927;-58
2023/08/10 10:09:15;;;;;;;;;;;;;;;18.03;51.42;98527.00;5105278;27;19934;-57
2023/08/10 10:12:06;;;;;;;;;;;;;;;18.05;50.61;98524.69;5115515;27;20317;-58
2023/08/10 10:14:54;;;;;;;;;;;;;;;18.20;48.90;98525.94;5114163;27;20494;-60
2023/08/10 10:17:43;;;;;;;;;;;;;;;18.24;50.29;98513.91;5110358;27;19927;-61
2023/08/10 10:20:31;;;;;;;;;;;;;;;18.26;49.67;98521.78;5120067;27;19927;-59
2023/08/10 10:23:20;;;;;;;;;;;;;;;18.23;52.32;98517.78;5122959;27;19924;-59
2023/08/10 10:26:10;;;;;;;;;;;;;;;18.35;49.17;98516.97;5118183;27;20065;-59
2023/08/10 10:29:11;;;;;;;;;;;;;;;18.41;48.94;98509.25;5119107;27;19924;-59
2023/08/10 10:32:04;;;;;;;;;;;;;;;18.49;48.47;98513.84;5116983;27;20007;-60
2023/08/10 10:34:53;;;;;;;;;;;;;;;18.47;46.95;98511.41;5125135;27;19931;-59
2023/08/10 10:43:18;;;;;;;;;;;;;;;18.64;46.50;98491.06;4985862;28;19938;-60
2023/08/10 10:45:48;;;;;;;;;;;;;;;18.58;48.54;98484.22;4979558;28;19933;-59
2023/08/10 10:48:16;;;;;;;;;;;;;;;18.52;48.98;98480.91;4992948;28;19957;-60
2023/08/10 10:50:44;;;;;;;;;;;;;;;18.51;46.82;98479.31;4992272;28;20330;-58
2023/08/10 10:53:13;;;;;;;;;;;;;;;18.59;46.38;98478.38;4990204;28;19973;-60
2023/08/10 10:55:42;;;;;;;;;;;;;;;18.57;48.22;98479.84;4992924;28;19925;-61
2023/08/10 10:58:12;;;;;;;;;;;;;;;18.65;45.79;98481.69;4989705;28;19934;-59
2023/08/10 11:00:40;;;;;;;;;;;;;;;18.65;47.28;98481.69;4983828;28;19973;-59
2023/08/10 11:03:10;;;;;;;;;;;;;;;18.75;47.95;98481.22;4990846;28;19941;-59
2023/08/10 11:05:38;;;;;;;;;;;;;;;18.74;49.29;98479.59;4988393;28;19926;-60
2023/08/10 11:08:07;;;;;;;;;;;;;;;18.82;48.84;98473.13;4983135;28;20374;-59
2023/08/10 11:10:36;;;;;;;;;;;;;;;18.98;47.10;98484.19;4985509;28;20267;-60
2023/08/10 11:13:04;;;;;;;;;;;;;;;19.04;48.29;98484.72;4993719;28;19929;-60
2023/08/10 11:15:31;;;;;;;;;;;;;;;18.99;49.88;98477.50;4988350;28;19933;-59
2023/08/10 11:17:59;;;;;;;;;;;;;;;19.03;50.24;98485.88;4990128;28;19933;-59
2023/08/10 11:20:31;;;;;;;;;;;;;;;19.05;47.95;98480.81;4988385;28;19926;-61
2023/08/10 11:22:59;;;;;;;;;;;;;;;19.05;50.73;98480.81;4987141;28;20052;-59
2023/08/10 11:25:32;;;;;;;;;;;;;;;19.04;50.15;98474.50;4992930;28;20347;-60
2023/08/10 11:28:00;;;;;;;;;;;;;;;19.21;48.50;98465.09;4986444;28;19949;-60
2023/08/10 11:30:28;;;;;;;;;;;;;;;19.15;50.02;98472.03;4981268;28;22220;-60
2023/08/10 11:32:56;;;;;;;;;;;;;;;19.05;47.90;98472.53;4986224;28;19926;-59
2023/08/10 11:35:26;;;;;;;;;;;;;;;19.06;48.60;98468.63;4987106;28;20835;-62
2023/08/10 11:37:56;;;;;;;;;;;;;;;19.13;46.19;98462.53;4990279;28;19926;-60
2023/08/10 11:40:24;;;;;;;;;;;;;;;19.05;45.17;98461.53;4985175;28;19940;-60
2023/08/10 11:43:03;;;;;;;;;;;;;;;19.00;46.67;98450.78;4982833;28;20021;-57
2023/08/10 11:45:33;;;;;;;;;;;;;;;18.98;47.46;98450.34;4983017;28;20283;-58
2023/08/10 11:48:01;;;;;;;;;;;;;;;19.00;45.10;98446.06;4983819;28;20019;-58
2023/08/10 11:50:31;;;;;;;;;;;;;;;18.92;47.45;98444.28;4990864;28;19930;-59
2023/08/10 11:53:09;;;;;;;;;;;;;;;18.90;48.69;98448.53;4990012;28;19930;-58
2023/08/10 11:55:44;;;;;;;;;;;;;;;19.07;48.52;98451.78;4986655;28;19933;-58
2023/08/10 11:58:13;;;;;;;;;;;;;;;19.03;48.55;98447.31;4985534;28;20353;-59
2023/08/10 12:00:44;;;;;;;;;;;;;;;19.11;45.91;98438.06;4978367;28;19925;-58
2023/08/10 12:03:16;;;;;;;;;;;;;;;19.20;44.89;98443.41;4981763;28;19956;-58
2023/08/10 12:05:44;;;;;;;;;;;;;;;19.20;44.79;98435.97;4987135;28;19926;-58
2023/08/10 12:08:14;;;;;;;;;;;;;;;19.22;46.27;98435.59;4990270;28;19929;-58
2023/08/10 12:10:43;;;;;;;;;;;;;;;19.40;42.31;98436.06;4987219;28;20010;-58
2023/08/10 12:13:13;;;;;;;;;;;;;;;19.33;46.35;98436.66;4987744;28;20395;-59
2023/08/10 12:15:46;;;;;;;;;;;;;;;19.39;44.39;98432.50;4981069;28;19933;-62
2023/08/10 12:18:14;;;;;;;;;;;;;;;19.44;45.26;98431.41;4986990;28;20268;-57
2023/08/10 12:20:42;;;;;;;;;;;;;;;19.43;45.02;98429.81;4985028;28;19976;-60
2023/08/10 12:23:10;;;;;;;;;;;;;;;19.47;43.74;98420.47;4986987;28;19942;-60
2023/08/10 12:25:40;;;;;;;;;;;;;;;19.50;45.63;98432.75;4990628;28;19933;-62
2023/08/10 12:28:08;;;;;;;;;;;;;;;19.53;46.18;98426.50;4988914;28;19926;-63
2023/08/10 12:30:36;;;;;;;;;;;;;;;19.59;46.33;98419.59;4977283;28;20290;-57
2023/08/10 12:33:04;;;;;;;;;;;;;;;19.61;45.35;98418.09;4986702;28;19926;-57
2023/08/10 12:35:32;;;;;;;;;;;;;;;19.56;47.92;98417.53;4983545;28;20016;-61
2023/08/10 12:38:00;;;;;;;;;;;;;;;19.60;42.59;98418.44;4988856;28;19930;-60
2023/08/10 12:40:28;;;;;;;;;;;;;;;19.62;41.90;98407.88;4983568;28;19934;-57
2023/08/10 12:42:58;;;;;;;;;;;;;;;19.50;42.81;98407.94;4990951;28;19925;-58
2023/08/10 12:45:26;;;;;;;;;;;;;;;19.46;43.72;98404.31;4987238;28;20314;-58
2023/08/10 12:47:54;;;;;;;;;;;;;;;19.46;45.90;98399.59;4992447;28;19932;-58
2023/08/10 12:50:23;;;;;;;;;;;;;;;19.43;44.94;98399.50;4991993;28;19933;-59
2023/08/10 12:52:51;;;;;;;;;;;;;;;19.52;42.01;98400.91;4991569;28;19935;-59
2023/08/10 12:55:19;;;;;;;;;;;;;;;19.57;42.68;98399.84;4991919;28;20044;-59
2023/08/10 12:57:46;;;;;;;;;;;;;;;19.67;41.98;98404.81;4988571;28;19933;-58
2023/08/10 13:00:16;;;;;;;;;;;;;;;19.75;41.62;98392.78;4988097;28;20375;-59
2023/08/10 13:02:48;;;;;;;;;;;;;;;19.82;41.37;98390.22;4992247;28;20016;-59
2023/08/10 13:05:16;;;;;;;;;;;;;;;19.87;42.64;98389.94;4991758;28;19941;-57
2023/08/10 13:07:45;;;;;;;;;;;;;;;19.86;44.30;98396.56;4992474;28;19926;-58
2023/08/10 13:10:15;;;;;;;;;;;;;;;19.83;46.54;98400.06;5012793;28;19926;-58
2023/08/10 13:12:43;;;;;;;;;;;;;;;19.81;46.52;98387.78;4975408;28;19930;-57
2023/08/10 13:15:11;;;;;;;;;;;;;;;19.82;43.89;98395.72;4986024;28;19933;-60
2023/08/10 13:17:40;;;;;;;;;;;;;;;19.83;44.07;98396.53;4981057;28;20354;-62
2023/08/10 13:20:11;;;;;;;;;;;;;;;19.75;42.26;98401.06;4979096;28;19934;-58
2023/08/10 13:22:39;;;;;;;;;;;;;;;19.72;43.57;98407.31;4991834;28;19983;-57
2023/08/10 13:25:07;;;;;;;;;;;;;;;19.76;40.52;98407.38;4988767;28;19925;-57
2023/08/10 13:27:35;;;;;;;;;;;;;;;19.69;42.69;98408.00;4991718;28;19932;-58
2023/08/10 13:30:03;;;;;;;;;;;;;;;19.81;41.99;98407.88;4990704;28;19926;-60
2023/08/10 13:32:31;;;;;;;;;;;;;;;19.81;43.41;98407.88;4988156;28;19933;-58
2023/08/10 13:35:00;;;;;;;;;;;;;;;19.80;45.41;98406.28;4991551;28;19932;-58
2023/08/10 13:37:33;;;;;;;;;;;;;;;19.87;42.72;98400.94;4991527;28;19925;-57
2023/08/10 13:40:02;;;;;;;;;;;;;;;20.09;42.03;98398.66;4991481;28;19926;-60
2023/08/10 13:42:32;;;;;;;;;;;;;;;20.03;44.13;98400.09;4988614;28;19933;-58
2023/08/10 13:45:04;;;;;;;;;;;;;;;20.06;43.66;98399.38;4987967;28;19961;-57
2023/08/10 13:47:32;;;;;;;;;;;;;;;20.05;41.64;98403.28;4988038;28;19980;-57
2023/08/10 13:50:01;;;;;;;;;;;;;;;20.13;41.16;98394.81;4989578;28;19933;-59
2023/08/10 13:52:29;;;;;;;;;;;;;;;20.14;42.09;98401.91;4983081;28;19934;-62
2023/08/10 13:54:58;;;;;;;;;;;;;;;20.17;45.08;98405.91;4990691;28;19926;-57
2023/08/10 13:57:26;;;;;;;;;;;;;;;20.20;43.00;98405.19;4989795;28;19930;-59
2023/08/10 13:59:53;;;;;;;;;;;;;;;20.24;42.51;98406.06;4990707;28;19926;-57
2023/08/10 14:02:21;;;;;;;;;;;;;;;20.21;43.29;98398.50;4984896;28;19965;-58
2023/08/10 14:04:52;;;;;;;;;;;;;;;20.27;41.71;98402.56;4986767;28;20716;-57
2023/08/10 14:07:22;;;;;;;;;;;;;;;20.25;42.42;98402.13;4990846;28;20345;-62
2023/08/10 14:09:50;;;;;;;;;;;;;;;20.30;41.95;98399.09;4990144;28;19969;-57
2023/08/10 14:12:18;;;;;;;;;;;;;;;20.33;43.48;98395.59;4989154;28;19930;-58
2023/08/10 14:14:46;;;;;;;;;;;;;;;20.31;47.50;98399.88;4990711;28;20387;-59
2023/08/10 14:17:14;;;;;;;;;;;;;;;20.31;43.25;98394.38;4993337;28;19926;-58
2023/08/10 14:19:42;;;;;;;;;;;;;;;20.39;40.38;98394.13;4990558;28;19926;-59